Time;durP1;ratioP1;P1;durP2;ratioP2;P2;SDS_P1;SDS_P2;PMS_P1;PMS_P2;Temp;Humidity;BMP_temperature;BMP_pressure;BME280_temperature;BME280_humidity;BME280_pressure;Samples;Min_cycle;Max_cycle;Signal;HPM_P1;HPM_P2
2021/06/14 00:00:27;;;;;;;5.38;3.08;;;;;;;10.54;70.07;96312.03;4911731;29;20054;-71
2021/06/14 00:03:12;;;;;;;6.47;3.30;;;;;;;10.49;70.72;96312.78;4891438;29;20114;-72
2021/06/14 00:05:41;;;;;;;16.08;3.92;;;;;;;10.42;70.95;96309.56;4879595;29;20483;-72
2021/06/14 00:08:12;;;;;;;5.85;3.17;;;;;;;10.43;71.26;96308.53;4894221;29;20048;-72
2021/06/14 00:10:38;;;;;;;8.98;4.35;;;;;;;10.35;71.70;96316.88;4910192;29;20044;-72
2021/06/14 00:13:07;;;;;;;6.60;3.20;;;;;;;10.21;72.23;96311.16;4895037;29;20041;-72
2021/06/14 00:15:33;;;;;;;4.93;3.30;;;;;;;10.23;71.88;96309.09;4895834;29;20538;-72
2021/06/14 00:18:01;;;;;;;6.05;3.30;;;;;;;10.26;71.76;96302.50;4894644;29;20521;-72
2021/06/14 00:20:27;;;;;;;4.82;3.40;;;;;;;10.20;72.35;96301.66;4907580;29;20056;-72
2021/06/14 00:22:53;;;;;;;6.80;3.70;;;;;;;10.11;72.07;96306.56;4877769;29;20047;-72
2021/06/14 00:25:22;;;;;;;4.88;2.97;;;;;;;10.13;72.65;96304.50;4877143;29;20137;-72
2021/06/14 00:27:48;;;;;;;5.55;3.30;;;;;;;10.06;72.74;96294.16;4884154;29;20041;-72
2021/06/14 00:30:21;;;;;;;6.25;4.00;;;;;;;10.03;73.33;96299.91;4876886;29;20049;-72
2021/06/14 00:32:47;;;;;;;4.90;3.38;;;;;;;9.99;73.47;96300.66;4890138;29;20076;-72
2021/06/14 00:35:13;;;;;;;3.97;2.90;;;;;;;9.95;73.22;96291.69;4908993;29;20518;-72
2021/06/14 00:37:38;;;;;;;5.75;3.00;;;;;;;9.91;72.75;96293.19;4890425;29;20041;-72
2021/06/14 00:40:04;;;;;;;7.95;3.38;;;;;;;9.84;73.39;96296.81;4904024;29;20505;-72
2021/06/14 00:42:30;;;;;;;5.57;3.38;;;;;;;9.80;73.20;96287.84;4911898;29;20048;-72
2021/06/14 00:44:55;;;;;;;6.55;3.50;;;;;;;9.79;72.90;96282.81;4912924;29;20482;-72
2021/06/14 00:47:21;;;;;;;8.10;3.45;;;;;;;9.75;72.96;96277.25;4883432;29;20052;-73
2021/06/14 00:49:46;;;;;;;7.82;3.72;;;;;;;9.70;72.86;96290.34;4881464;29;20048;-72
2021/06/14 00:52:12;;;;;;;6.63;3.10;;;;;;;9.74;72.53;96286.19;4876787;29;20045;-72
2021/06/14 00:54:37;;;;;;;6.82;3.25;;;;;;;9.72;72.69;96283.00;4878168;29;20045;-72
2021/06/14 00:57:03;;;;;;;6.32;2.95;;;;;;;9.69;73.44;96283.47;4891119;29;20041;-72
2021/06/14 00:59:29;;;;;;;8.00;3.03;;;;;;;9.62;73.68;96282.88;4911580;29;20052;-72
2021/06/14 01:01:54;;;;;;;9.93;3.42;;;;;;;9.53;74.74;96275.41;4908899;29;20479;-72
2021/06/14 01:04:20;;;;;;;4.93;3.20;;;;;;;9.50;74.80;96270.63;4903504;29;20040;-72
2021/06/14 01:06:49;;;;;;;6.18;3.42;;;;;;;9.53;74.72;96270.16;4907656;29;20063;-72
2021/06/14 01:09:15;;;;;;;7.20;3.40;;;;;;;9.47;74.97;96265.88;4884752;29;20045;-72
2021/06/14 01:11:57;;;;;;;6.13;3.22;;;;;;;9.40;75.05;96260.00;4901957;29;20055;-71
2021/06/14 01:14:38;;;;;;;6.70;3.20;;;;;;;9.37;75.18;96263.13;4891984;29;20523;-72
2021/06/14 01:17:07;;;;;;;6.97;3.35;;;;;;;9.34;75.39;96260.97;4882254;29;20112;-71
2021/06/14 01:20:01;;;;;;;4.35;3.17;;;;;;;9.31;73.97;96266.69;4894589;29;20101;-72
2021/06/14 01:22:52;;;;;;;6.07;3.17;;;;;;;9.22;74.71;96257.66;4888925;29;20410;-72
2021/06/14 01:25:27;;;;;;;7.70;3.38;;;;;;;9.21;74.40;96261.31;4890710;29;20060;-72
2021/06/14 01:27:56;;;;;;;6.78;3.20;;;;;;;9.18;73.77;96258.13;4891259;29;20466;-72
2021/06/14 01:30:30;;;;;;;5.20;3.10;;;;;;;9.14;74.13;96262.28;4894983;29;20041;-72
2021/06/14 01:32:55;;;;;;;7.35;3.80;;;;;;;9.11;74.39;96257.50;4898126;29;20045;-72
2021/06/14 01:35:37;;;;;;;7.70;3.83;;;;;;;9.09;74.14;96264.81;4899350;29;20052;-72
2021/06/14 01:38:05;;;;;;;6.18;3.30;;;;;;;9.08;74.16;96260.63;4892098;29;20052;-72
2021/06/14 01:40:32;;;;;;;5.07;3.00;;;;;;;9.06;74.58;96260.06;4888302;29;20052;-72
2021/06/14 01:43:01;;;;;;;7.28;3.70;;;;;;;8.99;74.58;96264.69;4904553;29;20040;-72
2021/06/14 01:45:29;;;;;;;6.38;3.22;;;;;;;8.98;74.68;96257.84;4910734;29;20052;-72
2021/06/14 01:47:56;;;;;;;8.00;3.28;;;;;;;8.92;75.58;96250.91;4879758;29;20502;-72
2021/06/14 01:50:24;;;;;;;6.80;3.20;;;;;;;8.91;76.29;96251.97;4895678;29;20069;-72
2021/06/14 01:52:50;;;;;;;5.55;3.00;;;;;;;8.95;75.79;96248.63;4896687;29;20410;-72
2021/06/14 01:55:18;;;;;;;6.40;3.15;;;;;;;8.92;75.85;96248.28;4911259;29;20097;-73
2021/06/14 01:57:45;;;;;;;4.80;2.95;;;;;;;8.89;75.67;96238.28;4883320;29;20061;-72
2021/06/14 02:00:11;;;;;;;5.35;3.30;;;;;;;8.82;76.18;96244.50;4897619;29;20060;-72
2021/06/14 02:02:38;;;;;;;5.32;3.30;;;;;;;8.84;76.80;96236.38;4886789;29;20055;-72
2021/06/14 02:05:05;;;;;;;7.07;3.40;;;;;;;8.77;76.45;96236.53;4905277;29;20048;-72
2021/06/14 02:07:31;;;;;;;4.97;3.22;;;;;;;8.70;76.81;96230.66;4912227;29;20470;-72
2021/06/14 02:09:57;;;;;;;8.27;3.47;;;;;;;8.71;76.78;96231.47;4894255;29;20044;-72
2021/06/14 02:12:23;;;;;;;5.65;3.38;;;;;;;8.74;76.39;96223.91;4897804;29;20507;-72
2021/06/14 02:14:50;;;;;;;6.18;3.30;;;;;;;8.69;76.88;96229.06;4901534;29;20056;-72
2021/06/14 02:17:20;;;;;;;5.90;3.45;;;;;;;8.71;76.42;96210.47;4902880;29;20048;-72
2021/06/14 02:19:48;;;;;;;5.00;3.35;;;;;;;8.61;77.06;96221.59;4891083;29;20119;-72
2021/06/14 02:22:15;;;;;;;10.05;3.75;;;;;;;8.55;77.71;96228.59;4898180;29;20044;-72
2021/06/14 02:24:42;;;;;;;5.68;3.63;;;;;;;8.52;77.82;96223.03;4901072;29;20040;-72
2021/06/14 02:27:10;;;;;;;9.23;3.45;;;;;;;8.48;77.87;96214.84;4916455;29;20040;-72
2021/06/14 02:29:35;;;;;;;7.22;3.60;;;;;;;8.41;78.17;96212.34;4886376;29;20040;-72
2021/06/14 02:32:01;;;;;;;5.45;3.58;;;;;;;8.40;78.52;96216.00;4880465;29;20128;-72
2021/06/14 02:34:27;;;;;;;6.65;3.50;;;;;;;8.36;78.31;96209.66;4911127;29;20052;-72
2021/06/14 02:36:55;;;;;;;7.95;3.83;;;;;;;8.32;78.69;96203.28;4913036;29;20048;-72
2021/06/14 02:39:32;;;;;;;4.90;3.50;;;;;;;8.30;79.38;96210.59;4893181;29;20506;-72
2021/06/14 02:41:59;;;;;;;5.47;3.40;;;;;;;8.32;78.52;96208.53;4898778;29;20044;-72
2021/06/14 02:44:26;;;;;;;6.75;3.55;;;;;;;8.30;79.29;96205.34;4905702;29;20047;-72
2021/06/14 02:46:56;;;;;;;4.95;3.30;;;;;;;8.24;79.07;96208.91;4912591;29;20044;-72
2021/06/14 02:49:23;;;;;;;5.47;3.13;;;;;;;8.22;79.36;96200.50;4889860;29;20048;-72
2021/06/14 02:51:51;;;;;;;8.00;3.47;;;;;;;8.24;78.89;96201.03;4888184;29;20415;-72
2021/06/14 02:54:21;;;;;;;7.55;3.50;;;;;;;8.24;79.45;96206.28;4895516;29;20172;-72
2021/06/14 02:56:54;;;;;;;9.88;3.53;;;;;;;8.19;79.01;96209.63;4896454;29;20349;-72
2021/06/14 02:59:20;;;;;;;6.25;3.30;;;;;;;8.13;78.92;96210.56;4892625;29;20049;-72
2021/06/14 03:01:48;;;;;;;6.65;3.05;;;;;;;8.09;79.38;96204.22;4911673;29;20139;-72
2021/06/14 03:04:16;;;;;;;7.75;3.80;;;;;;;8.04;79.16;96197.03;4904016;29;20048;-72
2021/06/14 03:06:47;;;;;;;5.20;3.50;;;;;;;8.07;79.68;96206.25;4910940;29;20439;-72
2021/06/14 03:09:13;;;;;;;5.50;3.50;;;;;;;8.01;79.96;96202.75;4900102;29;20049;-72
2021/06/14 03:11:41;;;;;;;7.10;3.30;;;;;;;7.99;79.78;96199.59;4878251;29;20052;-72
2021/06/14 03:14:08;;;;;;;8.88;3.70;;;;;;;7.90;80.46;96195.75;4881546;29;20041;-72
2021/06/14 03:16:34;;;;;;;4.85;3.40;;;;;;;7.90;80.25;96196.56;4878227;29;20047;-72
2021/06/14 03:19:01;;;;;;;7.10;3.40;;;;;;;7.89;80.24;96196.78;4897275;29;20059;-72
2021/06/14 03:21:30;;;;;;;9.27;3.65;;;;;;;7.80;80.25;96197.16;4904371;29;20055;-72
2021/06/14 03:23:55;;;;;;;9.32;3.70;;;;;;;7.91;80.06;96203.38;4908853;29;20047;-72
2021/06/14 03:26:27;;;;;;;5.45;3.20;;;;;;;7.98;79.93;96203.22;4897942;29;20049;-72
2021/06/14 03:28:53;;;;;;;5.75;3.25;;;;;;;7.94;80.10;96196.88;4878230;29;20056;-72
2021/06/14 03:31:19;;;;;;;5.75;3.60;;;;;;;7.92;80.74;96197.09;4894943;29;20056;-72
2021/06/14 03:33:50;;;;;;;5.07;3.40;;;;;;;7.93;80.58;96195.25;4889185;29;20443;-72
2021/06/14 03:36:20;;;;;;;6.55;3.70;;;;;;;7.92;81.32;96198.94;4877864;29;20049;-72
2021/06/14 03:38:47;;;;;;;5.68;3.70;;;;;;;7.91;80.86;96197.34;4888566;29;20040;-72
2021/06/14 03:41:13;;;;;;;6.20;3.45;;;;;;;7.91;80.64;96194.72;4913790;29;20044;-72
2021/06/14 03:43:39;;;;;;;5.15;3.55;;;;;;;7.91;80.45;96203.38;4904596;29;20111;-72
2021/06/14 03:46:05;;;;;;;9.38;3.47;;;;;;;7.97;80.22;96194.59;4913885;29;20386;-72
2021/06/14 03:48:30;;;;;;;8.20;3.40;;;;;;;7.98;80.50;96203.22;4894057;29;20092;-72
2021/06/14 03:50:56;;;;;;;5.63;3.72;;;;;;;7.98;80.16;96204.00;4896522;29;20041;-72
2021/06/14 03:53:31;;;;;;;5.90;3.53;;;;;;;7.99;80.63;96207.44;4894898;29;20041;-73
2021/06/14 03:56:01;;;;;;;6.18;3.38;;;;;;;8.00;80.81;96206.41;4903582;29;20051;-72
2021/06/14 03:58:27;;;;;;;6.85;3.30;;;;;;;8.11;80.52;96202.94;4878214;29;20147;-72
2021/06/14 04:00:53;;;;;;;4.30;3.25;;;;;;;8.12;80.78;96207.16;4877312;29;20048;-72
2021/06/14 04:03:19;;;;;;;5.93;3.67;;;;;;;8.20;79.96;96210.41;4898106;29;20041;-72
2021/06/14 04:05:45;;;;;;;5.68;3.60;;;;;;;8.20;79.93;96205.16;4907541;29;20044;-72
2021/06/14 04:08:12;;;;;;;5.35;3.65;;;;;;;8.19;81.03;96208.81;4894941;29;20063;-72
2021/06/14 04:10:38;;;;;;;6.78;3.60;;;;;;;8.25;81.12;96207.88;4893721;29;20171;-72
2021/06/14 04:13:07;;;;;;;6.57;3.63;;;;;;;8.39;80.86;96209.19;4895785;29;20104;-72
2021/06/14 04:15:33;;;;;;;6.88;3.80;;;;;;;8.51;80.69;96216.22;4892700;29;20041;-72
2021/06/14 04:17:58;;;;;;;5.68;3.85;;;;;;;8.65;80.00;96214.84;4898657;29;20116;-72
2021/06/14 04:20:24;;;;;;;6.82;4.03;;;;;;;8.78;80.20;96222.38;4885059;29;20048;-72
2021/06/14 04:22:51;;;;;;;11.07;3.90;;;;;;;8.89;79.68;96217.28;4882243;29;20071;-72
2021/06/14 04:25:17;;;;;;;8.38;4.10;;;;;;;8.97;79.02;96219.50;4910310;29;20565;-72
2021/06/14 04:27:42;;;;;;;6.55;3.65;;;;;;;9.02;79.12;96206.44;4904110;29;20174;-72
2021/06/14 04:30:08;;;;;;;5.60;3.85;;;;;;;9.08;78.79;96221.25;4914286;29;20454;-72
2021/06/14 04:32:34;;;;;;;6.43;3.70;;;;;;;9.21;79.19;96219.28;4898722;29;20052;-71
2021/06/14 04:34:59;;;;;;;8.32;3.80;;;;;;;9.31;78.87;96216.78;4876650;29;20517;-71
2021/06/14 04:37:25;;;;;;;6.10;4.00;;;;;;;9.38;78.42;96209.56;4885976;29;20052;-71
2021/06/14 04:39:50;;;;;;;7.60;3.78;;;;;;;9.48;78.91;96214.94;4907575;29;20091;-71
2021/06/14 04:42:16;;;;;;;7.18;3.78;;;;;;;9.49;79.68;96211.25;4887565;29;20044;-70
2021/06/14 04:44:41;;;;;;;5.63;3.42;;;;;;;9.59;78.85;96220.28;4902675;29;20044;-71
2021/06/14 04:47:07;;;;;;;7.10;4.10;;;;;;;9.67;79.38;96218.03;4893658;29;20123;-71
2021/06/14 04:49:33;;;;;;;6.68;4.05;;;;;;;9.74;79.29;96212.59;4894442;29;20036;-71
2021/06/14 04:51:59;;;;;;;7.88;4.38;;;;;;;9.79;79.90;96215.25;4894942;29;20510;-71
2021/06/14 04:54:24;;;;;;;7.13;4.22;;;;;;;9.91;78.57;96211.69;4894549;29;20080;-70
2021/06/14 04:56:50;;;;;;;7.32;4.60;;;;;;;10.10;77.92;96205.06;4893559;29;20072;-71
2021/06/14 04:59:15;;;;;;;7.70;4.45;;;;;;;10.29;77.44;96207.34;4894565;29;20128;-71
2021/06/14 05:01:43;;;;;;;7.10;4.00;;;;;;;10.42;77.45;96204.31;4894637;29;20396;-71
2021/06/14 05:04:08;;;;;;;8.63;4.30;;;;;;;10.52;77.43;96209.66;4883551;29;20092;-71
2021/06/14 05:06:34;;;;;;;8.18;4.32;;;;;;;10.71;77.12;96193.47;4876174;29;20049;-71
2021/06/14 05:08:59;;;;;;;8.80;4.50;;;;;;;10.83;75.87;96201.19;4891544;29;20045;-71
2021/06/14 05:11:25;;;;;;;7.78;4.50;;;;;;;10.87;77.33;96210.16;4888245;29;20388;-71
2021/06/14 05:13:51;;;;;;;10.32;4.38;;;;;;;11.03;75.83;96208.41;4906365;29;20071;-71
2021/06/14 05:16:16;;;;;;;7.07;4.75;;;;;;;10.95;78.21;96200.97;4885516;29;20068;-71
2021/06/14 05:18:42;;;;;;;10.43;4.80;;;;;;;11.01;77.04;96207.88;4888583;29;20253;-71
2021/06/14 05:21:07;;;;;;;8.35;4.88;;;;;;;11.30;74.92;96207.50;4891264;29;20055;-71
2021/06/14 05:23:33;;;;;;;7.32;4.65;;;;;;;11.42;75.56;96213.34;4896974;29;20498;-71
2021/06/14 05:25:58;;;;;;;7.57;4.82;;;;;;;11.51;74.56;96201.28;4886086;29;20418;-71
2021/06/14 05:28:24;;;;;;;9.73;4.72;;;;;;;11.73;71.95;96203.72;4879795;29;20499;-71
2021/06/14 05:30:49;;;;;;;9.05;5.00;;;;;;;11.83;72.29;96202.97;4902617;29;20048;-71
2021/06/14 05:33:15;;;;;;;10.50;4.57;;;;;;;12.01;70.60;96193.81;4916175;29;20128;-71
2021/06/14 05:35:40;;;;;;;8.60;4.40;;;;;;;12.12;70.66;96194.59;4896332;29;20040;-71
2021/06/14 05:38:06;;;;;;;9.10;4.78;;;;;;;12.15;70.92;96204.63;4897443;29;20055;-72
2021/06/14 05:40:32;;;;;;;8.15;4.35;;;;;;;12.18;69.94;96204.09;4882161;29;20172;-71
2021/06/14 05:42:58;;;;;;;11.10;5.32;;;;;;;12.28;69.75;96209.41;4879467;29;20475;-71
2021/06/14 05:45:23;;;;;;;9.48;5.18;;;;;;;12.35;69.44;96203.84;4887336;29;20140;-71
2021/06/14 05:47:49;;;;;;;9.43;5.60;;;;;;;12.29;70.58;96205.69;4892902;29;20053;-71
2021/06/14 05:50:15;;;;;;;6.85;4.65;;;;;;;12.45;69.05;96200.44;4896088;29;20047;-71
2021/06/14 05:52:40;;;;;;;10.05;4.80;;;;;;;12.53;68.37;96205.19;4897807;29;20127;-71
2021/06/14 05:55:07;;;;;;;12.15;4.70;;;;;;;12.62;69.59;96208.88;4896345;29;20053;-71
2021/06/14 05:57:33;;;;;;;9.93;4.57;;;;;;;12.68;68.42;96206.25;4903909;29;20435;-71
2021/06/14 05:59:58;;;;;;;8.35;5.00;;;;;;;12.79;68.09;96197.25;4888870;29;20509;-71
2021/06/14 06:02:24;;;;;;;10.85;4.72;;;;;;;12.82;68.29;96207.28;4896530;29;20052;-71
2021/06/14 06:04:50;;;;;;;8.50;5.10;;;;;;;13.05;67.41;96199.84;4887299;29;20053;-71
2021/06/14 06:07:15;;;;;;;10.45;4.68;;;;;;;13.17;66.88;96198.50;4897330;29;20053;-71
2021/06/14 06:09:41;;;;;;;7.68;4.90;;;;;;;13.12;67.67;96205.66;4886725;29;20045;-71
2021/06/14 06:12:07;;;;;;;10.73;4.95;;;;;;;13.10;68.96;96202.47;4896972;29;20045;-71
2021/06/14 06:14:32;;;;;;;8.90;4.55;;;;;;;12.95;71.62;96201.44;4898159;29;20116;-71
2021/06/14 06:16:58;;;;;;;9.20;5.10;;;;;;;13.16;68.48;96201.44;4905420;29;20044;-71
2021/06/14 06:19:24;;;;;;;8.88;4.97;;;;;;;13.20;69.31;96202.44;4890953;29;20052;-71
2021/06/14 06:21:49;;;;;;;7.85;4.70;;;;;;;13.32;67.94;96205.59;4878535;29;20056;-71
2021/06/14 06:24:15;;;;;;;9.00;5.00;;;;;;;13.37;68.16;96201.38;4879259;29;20045;-71
2021/06/14 06:26:41;;;;;;;8.77;4.75;;;;;;;13.63;67.38;96200.22;4882890;29;20045;-72
2021/06/14 06:29:06;;;;;;;7.75;4.10;;;;;;;13.59;68.05;96199.19;4878492;29;20567;-71
2021/06/14 06:31:32;;;;;;;8.52;4.60;;;;;;;13.56;67.20;96194.44;4878720;29;20180;-71
2021/06/14 06:33:57;;;;;;;10.35;4.43;;;;;;;13.52;68.76;96188.91;4890008;29;20036;-71
2021/06/14 06:36:23;;;;;;;9.98;4.97;;;;;;;13.64;67.12;96185.91;4897916;29;20048;-71
2021/06/14 06:38:49;;;;;;;9.20;4.22;;;;;;;13.65;68.07;96182.22;4884000;29;20530;-71
2021/06/14 06:41:14;;;;;;;6.50;4.63;;;;;;;13.89;66.49;96186.84;4879805;29;20049;-71
2021/06/14 06:43:40;;;;;;;8.55;4.15;;;;;;;14.06;65.93;96193.66;4878545;29;20479;-71
2021/06/14 06:46:06;;;;;;;6.93;4.15;;;;;;;14.07;64.17;96187.28;4888151;29;20049;-71
2021/06/14 06:48:32;;;;;;;7.13;4.18;;;;;;;14.10;63.88;96186.75;4887695;29;20036;-71
2021/06/14 06:50:58;;;;;;;11.35;4.75;;;;;;;14.30;64.10;96172.56;4881214;29;20111;-71
2021/06/14 06:53:28;;;;;;;9.13;3.88;;;;;;;14.41;63.11;96178.56;4890945;29;20571;-71
2021/06/14 06:55:54;;;;;;;9.98;4.15;;;;;;;14.47;62.87;96180.13;4893367;29;20141;-71
2021/06/14 06:58:20;;;;;;;11.93;4.18;;;;;;;14.42;63.63;96182.81;4897774;29;20071;-71
2021/06/14 07:00:48;;;;;;;9.07;4.20;;;;;;;14.71;62.14;96175.69;4907796;29;20056;-71
2021/06/14 07:03:16;;;;;;;7.70;4.00;;;;;;;14.89;62.72;96181.34;4911272;29;20135;-71
2021/06/14 07:05:43;;;;;;;7.97;4.07;;;;;;;14.87;60.70;96173.69;4894362;29;20700;-71
2021/06/14 07:08:09;;;;;;;12.55;3.83;;;;;;;14.86;62.28;96176.63;4910152;29;20095;-71
2021/06/14 07:10:37;;;;;;;8.95;3.40;;;;;;;14.91;62.46;96179.22;4891950;29;20064;-71
2021/06/14 07:13:03;;;;;;;8.32;3.70;;;;;;;15.20;61.93;96173.06;4896563;29;20104;-71
2021/06/14 07:15:29;;;;;;;6.45;3.80;;;;;;;15.42;59.89;96178.66;4883328;29;20041;-71
2021/06/14 07:17:55;;;;;;;6.57;3.30;;;;;;;15.29;60.59;96168.75;4894694;29;20195;-71
2021/06/14 07:20:21;;;;;;;7.85;3.88;;;;;;;15.31;59.47;96166.59;4885947;29;20044;-71
2021/06/14 07:22:47;;;;;;;7.03;3.70;;;;;;;15.33;60.80;96168.94;4891162;29;20415;-71
2021/06/14 07:25:14;;;;;;;7.38;3.58;;;;;;;15.35;61.91;96166.81;4894296;29;20044;-71
2021/06/14 07:27:41;;;;;;;11.68;4.10;;;;;;;15.30;61.27;96159.72;4895461;29;20116;-71
2021/06/14 07:30:08;;;;;;;6.38;3.58;;;;;;;15.42;62.23;96170.69;4893302;29;20227;-71
2021/06/14 07:32:34;;;;;;;8.55;3.78;;;;;;;15.50;61.14;96163.19;4906395;29;20040;-71
2021/06/14 07:35:00;;;;;;;7.75;3.58;;;;;;;15.48;61.29;96154.72;4893097;29;20107;-71
2021/06/14 07:37:25;;;;;;;7.35;3.63;;;;;;;15.80;60.79;96163.91;4893471;29;20104;-71
2021/06/14 07:39:51;;;;;;;8.65;3.60;;;;;;;15.92;59.54;96158.97;4905319;29;20136;-71
2021/06/14 07:42:17;;;;;;;8.25;3.90;;;;;;;16.07;57.59;96161.38;4903821;29;20120;-71
2021/06/14 07:44:43;;;;;;;10.23;3.88;;;;;;;16.03;58.11;96160.41;4891375;29;20069;-71
2021/06/14 07:47:09;;;;;;;8.38;3.90;;;;;;;16.08;57.83;96162.97;4886441;29;20076;-71
2021/06/14 07:49:35;;;;;;;6.82;3.80;;;;;;;16.21;56.55;96160.66;4881509;29;20057;-71
2021/06/14 07:52:03;;;;;;;12.85;4.78;;;;;;;16.29;55.39;96162.63;4886426;29;20045;-71
2021/06/14 07:54:29;;;;;;;10.48;3.80;;;;;;;16.26;55.53;96160.56;4880282;29;20056;-71
2021/06/14 07:56:54;;;;;;;6.85;3.47;;;;;;;16.20;57.50;96161.72;4877050;29;20064;-71
2021/06/14 07:59:20;;;;;;;37.95;4.30;;;;;;;16.49;55.01;96158.09;4890860;29;20546;-71
2021/06/14 08:01:46;;;;;;;12.57;3.47;;;;;;;16.55;55.16;96151.59;4883031;29;20041;-71
2021/06/14 08:04:11;;;;;;;6.50;3.17;;;;;;;16.61;54.43;96159.22;4884528;29;20044;-71
2021/06/14 08:06:37;;;;;;;6.65;3.55;;;;;;;16.59;54.73;96155.25;4895232;29;20092;-71
2021/06/14 08:09:06;;;;;;;9.57;3.38;;;;;;;16.69;54.90;96159.63;4892753;29;20049;-71
2021/06/14 08:11:32;;;;;;;7.80;3.40;;;;;;;16.79;53.94;96160.25;4893598;29;20044;-71
2021/06/14 08:13:59;;;;;;;8.32;3.55;;;;;;;16.71;54.24;96158.25;4877437;29;20400;-72
2021/06/14 08:16:25;;;;;;;8.40;3.40;;;;;;;17.01;54.43;96156.16;4882861;29;20041;-74
2021/06/14 08:26:42;;;;;;;8.68;3.55;;;;;;;17.14;52.79;96139.41;4894627;29;20100;-71
2021/06/14 08:29:08;;;;;;;9.50;4.13;;;;;;;17.40;52.87;96140.78;4895558;29;20048;-72
2021/06/14 08:31:35;;;;;;;7.55;3.50;;;;;;;17.47;50.99;96141.16;4900646;29;20044;-72
2021/06/14 08:34:01;;;;;;;5.03;3.38;;;;;;;17.62;53.33;96142.72;4899273;29;20045;-74
2021/06/14 08:36:27;;;;;;;6.35;3.38;;;;;;;17.74;53.84;96137.66;4878496;29;20491;-72
2021/06/14 08:38:53;;;;;;;8.65;3.95;;;;;;;17.61;52.71;96141.13;4899579;29;20108;-71
2021/06/14 08:41:21;;;;;;;11.70;4.18;;;;;;;17.57;53.00;96140.16;4900118;29;20044;-73
2021/06/14 08:43:49;;;;;;;7.60;3.75;;;;;;;17.57;52.17;96145.47;4914061;29;20068;-73
2021/06/14 08:46:15;;;;;;;10.95;3.85;;;;;;;17.66;51.67;96138.38;4900284;29;20036;-73
2021/06/14 08:48:41;;;;;;;8.27;3.80;;;;;;;17.81;51.51;96130.06;4894208;29;20059;-73
2021/06/14 08:51:08;;;;;;;7.38;3.78;;;;;;;17.80;51.17;96123.16;4895256;29;20044;-73
2021/06/14 08:53:36;;;;;;;9.18;4.07;;;;;;;17.96;51.26;96136.16;4894951;29;20045;-73
2021/06/14 08:56:02;;;;;;;6.50;3.20;;;;;;;18.00;50.46;96137.09;4891257;29;20052;-72
2021/06/14 08:58:29;;;;;;;6.30;3.40;;;;;;;18.02;50.44;96129.63;4890765;29;20045;-72
2021/06/14 09:00:55;;;;;;;7.15;3.40;;;;;;;18.11;51.02;96130.47;4881859;29;20360;-73
2021/06/14 09:03:26;;;;;;;7.45;3.58;;;;;;;18.24;49.98;96130.72;4901903;29;20055;-72
2021/06/14 09:05:52;;;;;;;8.35;3.63;;;;;;;18.24;49.09;96120.06;4893997;29;20517;-72
2021/06/14 09:08:22;;;;;;;8.07;3.75;;;;;;;18.23;51.11;96123.81;4876838;29;20045;-71
2021/06/14 09:10:48;;;;;;;8.07;3.50;;;;;;;18.69;48.86;96125.31;4895273;29;20394;-71
2021/06/14 09:13:23;;;;;;;9.13;3.65;;;;;;;18.87;47.54;96132.34;4893923;29;20051;-72
2021/06/14 09:15:53;;;;;;;8.73;3.38;;;;;;;18.84;47.11;96127.59;4884788;29;20527;-72
2021/06/14 09:18:25;;;;;;;8.98;3.17;;;;;;;18.63;45.78;96126.56;4881608;29;20048;-72
2021/06/14 09:21:02;;;;;;;7.57;3.50;;;;;;;18.48;47.03;96115.19;4895175;29;20051;-72
2021/06/14 09:23:42;;;;;;;7.97;3.88;;;;;;;18.72;47.97;96122.06;4891571;29;20115;-71
2021/06/14 09:26:19;;;;;;;7.38;3.58;;;;;;;18.93;47.72;96116.22;4896416;29;20132;-71
2021/06/14 09:28:50;;;;;;;6.90;3.72;;;;;;;19.08;47.29;96110.47;4904653;29;20044;-72
2021/06/14 09:31:16;;;;;;;7.50;3.53;;;;;;;19.15;46.61;96105.47;4901509;29;20040;-72
2021/06/14 09:33:44;;;;;;;7.70;3.47;;;;;;;19.07;46.15;96102.78;4913509;29;20119;-72
2021/06/14 09:36:10;;;;;;;8.52;3.50;;;;;;;19.21;46.88;96104.22;4913703;29;20063;-71
2021/06/14 09:38:36;;;;;;;8.00;3.75;;;;;;;19.17;45.89;96103.25;4899387;29;20137;-71
2021/06/14 09:41:15;;;;;;;14.07;3.45;;;;;;;19.31;45.70;96102.34;4885955;29;20053;-72
2021/06/14 09:43:44;;;;;;;12.82;3.20;;;;;;;19.39;45.03;96109.59;4889388;29;20046;-72
2021/06/14 09:46:30;;;;;;;7.65;3.22;;;;;;;19.26;45.57;96105.19;4894624;29;20116;-71
2021/06/14 09:49:02;;;;;;;5.85;3.40;;;;;;;19.37;45.96;96103.78;4892257;29;20187;-72
2021/06/14 09:51:29;;;;;;;6.93;3.92;;;;;;;19.42;44.63;96103.63;4894761;29;20056;-72
2021/06/14 09:53:54;;;;;;;10.65;3.80;;;;;;;19.67;44.08;96098.66;4904666;29;20143;-71
2021/06/14 09:56:26;;;;;;;16.13;4.00;;;;;;;19.61;43.79;96094.56;4904597;29;20044;-71
2021/06/14 09:58:54;;;;;;;7.22;3.20;;;;;;;19.67;43.11;96093.31;4895018;29;20486;-71
2021/06/14 10:01:28;;;;;;;6.93;3.33;;;;;;;19.81;44.15;96093.97;4894859;29;20045;-71
2021/06/14 10:03:56;;;;;;;10.40;3.30;;;;;;;20.08;44.39;96092.06;4896802;29;20044;-71
2021/06/14 10:06:30;;;;;;;6.45;3.00;;;;;;;20.42;40.18;96095.78;4899074;29;20051;-71
2021/06/14 10:08:55;;;;;;;5.85;3.78;;;;;;;20.56;41.56;96085.69;4895848;29;20459;-71
2021/06/14 10:11:21;;;;;;;11.23;3.63;;;;;;;20.60;43.79;96091.16;4888432;29;20073;-72
2021/06/14 10:13:49;;;;;;;11.52;3.85;;;;;;;20.88;44.85;96088.88;4891432;29;20048;-72
2021/06/14 10:16:21;;;;;;;6.82;3.60;;;;;;;21.21;43.55;96085.59;4896335;29;20510;-72
2021/06/14 10:18:59;;;;;;;9.70;3.88;;;;;;;21.35;43.53;96081.88;4916351;29;20051;-72
2021/06/14 10:21:33;;;;;;;10.90;3.75;;;;;;;21.67;40.85;96082.34;4897226;29;20055;-72
2021/06/14 10:24:05;;;;;;;9.27;3.70;;;;;;;21.71;40.65;96075.22;4897862;29;20052;-72
2021/06/14 10:26:34;;;;;;;6.05;3.17;;;;;;;21.95;39.90;96083.38;4893858;29;20086;-74
2021/06/14 10:29:00;;;;;;;8.27;3.70;;;;;;;22.18;40.60;96069.56;4906678;29;20507;-74
2021/06/14 10:31:25;;;;;;;9.30;3.50;;;;;;;22.69;40.37;96065.94;4909096;29;20072;-74
2021/06/14 10:33:54;;;;;;;7.40;3.63;;;;;;;23.06;40.59;96074.78;4896982;29;20040;-73
2021/06/14 10:36:22;;;;;;;9.55;3.88;;;;;;;22.83;39.02;96066.38;4897565;29;20040;-73
2021/06/14 10:38:50;;;;;;;6.03;3.58;;;;;;;22.82;38.44;96062.91;4897044;29;20052;-73
2021/06/14 10:41:20;;;;;;;7.85;3.33;;;;;;;23.67;38.54;96059.69;4896580;29;20060;-73
2021/06/14 10:43:47;;;;;;;7.30;3.35;;;;;;;24.54;35.10;96060.13;4897713;29;20499;-73
2021/06/14 10:46:15;;;;;;;7.07;3.60;;;;;;;24.73;35.56;96059.44;4897388;29;20048;-73
2021/06/14 10:48:41;;;;;;;9.07;3.85;;;;;;;24.91;34.50;96057.16;4893064;29;20037;-73
2021/06/14 10:51:19;;;;;;;9.20;3.78;;;;;;;23.82;34.89;96050.13;4877234;29;20056;-73
2021/06/14 10:53:52;;;;;;;8.88;3.70;;;;;;;23.66;36.49;96053.56;4909323;29;20040;-73
2021/06/14 10:56:20;;;;;;;10.38;3.75;;;;;;;23.70;36.12;96054.44;4900342;29;20514;-74
2021/06/14 10:59:03;;;;;;;10.18;4.00;;;;;;;24.23;35.32;96053.56;4896815;29;20464;-73
2021/06/14 11:01:41;;;;;;;14.38;3.75;;;;;;;25.24;34.23;96051.41;4898397;29;20052;-73
2021/06/14 11:04:08;;;;;;;10.25;3.53;;;;;;;24.96;33.28;96046.16;4895668;29;20124;-73
2021/06/14 11:06:37;;;;;;;6.80;3.72;;;;;;;24.52;32.96;96044.31;4897034;29;20078;-73
2021/06/14 11:09:08;;;;;;;10.23;3.42;;;;;;;25.71;30.56;96030.81;4895562;29;20044;-73
2021/06/14 11:11:47;;;;;;;6.22;3.47;;;;;;;25.91;32.62;96034.28;4911264;29;20045;-73
2021/06/14 11:14:14;;;;;;;10.38;4.18;;;;;;;26.78;31.57;96025.84;4901879;29;20044;-73
2021/06/14 11:16:40;;;;;;;9.73;3.83;;;;;;;26.04;31.75;96016.06;4893317;29;20499;-73
2021/06/14 11:19:08;;;;;;;11.77;3.72;;;;;;;26.82;30.33;96014.31;4883134;29;20049;-74
2021/06/14 11:21:34;;;;;;;8.63;3.97;;;;;;;26.73;30.05;96012.63;4881597;29;20071;-74
2021/06/14 11:24:11;;;;;;;8.20;3.85;;;;;;;26.89;30.81;96009.00;4904093;29;20052;-73
2021/06/14 11:26:38;;;;;;;7.65;3.88;;;;;;;26.88;30.32;96013.66;4914638;29;20513;-73
2021/06/14 11:29:17;;;;;;;6.13;3.80;;;;;;;27.28;30.64;96008.78;4886090;29;20171;-72
2021/06/14 11:32:01;;;;;;;6.00;3.33;;;;;;;25.89;29.68;96000.75;4894116;29;20059;-75
2021/06/14 11:34:36;;;;;;;8.73;3.50;;;;;;;25.97;30.05;95988.94;4883777;29;20044;-71
2021/06/14 11:37:02;;;;;;;8.57;3.45;;;;;;;27.11;29.00;95997.38;4888363;29;20095;-69
2021/06/14 11:39:28;;;;;;;10.75;3.67;;;;;;;27.18;29.40;95977.00;4911019;29;20047;-71
2021/06/14 11:41:54;;;;;;;5.82;3.47;;;;;;;26.92;28.13;95982.06;4888823;29;20185;-72
2021/06/14 11:44:30;;;;;;;10.13;3.78;;;;;;;26.68;29.89;95980.56;4881506;29;20053;-70
2021/06/14 11:46:58;;;;;;;9.73;3.60;;;;;;;26.37;29.39;95978.88;4879186;29;20041;-69